sensor_id;sensor_type;location;lat;lon;timestamp;pressure;altitude;pressure_sealevel;temperature;humidity
14232;BME280;7200;52.194;9.900;2023-09-07T00:01:55;100969.88;;;18.60;100.00
14232;BME280;7200;52.194;9.900;2023-09-07T00:04:21;100970.47;;;18.65;100.00
14232;BME280;7200;52.194;9.900;2023-09-07T00:06:48;100962.63;;;18.62;100.00
14232;BME280;7200;52.194;9.900;2023-09-07T00:09:14;100971.38;;;18.49;100.00
14232;BME280;7200;52.194;9.900;2023-09-07T00:11:41;100981.91;;;18.53;100.00
14232;BME280;7200;52.194;9.900;2023-09-07T00:14:06;100977.97;;;18.44;100.00
14232;BME280;7200;52.194;9.900;2023-09-07T00:16:32;100973.78;;;18.40;100.00
14232;BME280;7200;52.194;9.900;2023-09-07T00:19:00;100973.59;;;18.43;100.00
14232;BME280;7200;52.194;9.900;2023-09-07T00:21:25;100981.22;;;18.35;100.00
14232;BME280;7200;52.194;9.900;2023-09-07T00:23:51;100973.09;;;18.36;100.00
14232;BME280;7200;52.194;9.900;2023-09-07T00:26:16;100972.28;;;18.50;100.00
14232;BME280;7200;52.194;9.900;2023-09-07T00:28:41;100971.34;;;18.80;100.00
14232;BME280;7200;52.194;9.900;2023-09-07T00:31:06;100976.38;;;18.56;100.00
14232;BME280;7200;52.194;9.900;2023-09-07T00:33:32;100976.00;;;18.03;100.00
14232;BME280;7200;52.194;9.900;2023-09-07T00:35:57;100972.09;;;18.08;100.00
14232;BME280;7200;52.194;9.900;2023-09-07T00:38:22;100972.94;;;18.54;100.00
14232;BME280;7200;52.194;9.900;2023-09-07T00:40:48;100967.81;;;18.65;100.00
14232;BME280;7200;52.194;9.900;2023-09-07T00:43:13;100969.25;;;18.71;100.00
14232;BME280;7200;52.194;9.900;2023-09-07T00:45:39;100973.91;;;18.67;100.00
14232;BME280;7200;52.194;9.900;2023-09-07T00:48:05;100966.88;;;18.80;100.00
14232;BME280;7200;52.194;9.900;2023-09-07T00:50:30;100977.25;;;18.71;100.00
14232;BME280;7200;52.194;9.900;2023-09-07T00:52:56;100973.41;;;18.60;100.00
14232;BME280;7200;52.194;9.900;2023-09-07T00:55:22;100970.75;;;18.46;100.00
14232;BME280;7200;52.194;9.900;2023-09-07T00:57:48;100968.31;;;17.97;100.00
14232;BME280;7200;52.194;9.900;2023-09-07T01:00:13;100971.09;;;18.25;100.00
14232;BME280;7200;52.194;9.900;2023-09-07T01:02:39;100966.34;;;18.45;100.00
14232;BME280;7200;52.194;9.900;2023-09-07T01:05:05;100969.13;;;18.58;100.00
14232;BME280;7200;52.194;9.900;2023-09-07T01:07:35;100972.09;;;18.67;100.00
14232;BME280;7200;52.194;9.900;2023-09-07T01:10:03;100965.78;;;18.54;100.00
14232;BME280;7200;52.194;9.900;2023-09-07T01:12:28;100970.75;;;18.46;100.00
14232;BME280;7200;52.194;9.900;2023-09-07T01:14:54;100970.78;;;18.30;100.00
14232;BME280;7200;52.194;9.900;2023-09-07T01:17:20;100968.41;;;18.25;100.00
14232;BME280;7200;52.194;9.900;2023-09-07T01:19:48;100966.28;;;18.16;100.00
14232;BME280;7200;52.194;9.900;2023-09-07T01:22:16;100961.28;;;18.10;100.00
14232;BME280;7200;52.194;9.900;2023-09-07T01:24:42;100955.19;;;18.08;100.00
14232;BME280;7200;52.194;9.900;2023-09-07T01:27:09;100952.25;;;18.13;100.00
14232;BME280;7200;52.194;9.900;2023-09-07T01:29:34;100957.97;;;18.06;100.00
14232;BME280;7200;52.194;9.900;2023-09-07T01:31:59;100947.94;;;17.96;100.00
14232;BME280;7200;52.194;9.900;2023-09-07T01:34:25;100955.47;;;18.03;100.00
14232;BME280;7200;52.194;9.900;2023-09-07T01:36:50;100959.09;;;18.02;100.00
14232;BME280;7200;52.194;9.900;2023-09-07T01:39:15;100954.97;;;17.97;100.00
14232;BME280;7200;52.194;9.900;2023-09-07T01:41:42;100952.53;;;18.08;100.00
14232;BME280;7200;52.194;9.900;2023-09-07T01:44:07;100943.75;;;18.06;100.00
14232;BME280;7200;52.194;9.900;2023-09-07T01:46:32;100953.25;;;17.96;100.00
14232;BME280;7200;52.194;9.900;2023-09-07T01:48:58;100949.19;;;17.58;100.00
14232;BME280;7200;52.194;9.900;2023-09-07T01:51:23;100945.25;;;17.96;100.00
14232;BME280;7200;52.194;9.900;2023-09-07T01:53:52;100948.31;;;17.42;100.00
14232;BME280;7200;52.194;9.900;2023-09-07T01:56:18;100950.09;;;17.89;100.00
14232;BME280;7200;52.194;9.900;2023-09-07T01:58:43;100954.03;;;17.82;100.00
14232;BME280;7200;52.194;9.900;2023-09-07T02:01:23;100947.75;;;17.83;100.00
14232;BME280;7200;52.194;9.900;2023-09-07T02:03:49;100949.41;;;17.85;100.00
14232;BME280;7200;52.194;9.900;2023-09-07T02:06:14;100957.84;;;17.94;100.00
14232;BME280;7200;52.194;9.900;2023-09-07T02:08:40;100954.25;;;18.09;100.00
14232;BME280;7200;52.194;9.900;2023-09-07T02:11:06;100957.09;;;18.06;100.00
14232;BME280;7200;52.194;9.900;2023-09-07T02:13:31;100958.53;;;17.97;100.00
14232;BME280;7200;52.194;9.900;2023-09-07T02:15:56;100952.16;;;17.84;100.00
14232;BME280;7200;52.194;9.900;2023-09-07T02:18:22;100945.44;;;17.77;100.00
14232;BME280;7200;52.194;9.900;2023-09-07T02:20:47;100944.94;;;17.70;100.00
14232;BME280;7200;52.194;9.900;2023-09-07T02:23:12;100947.91;;;17.80;100.00
14232;BME280;7200;52.194;9.900;2023-09-07T02:25:37;100947.06;;;17.79;100.00
14232;BME280;7200;52.194;9.900;2023-09-07T02:28:03;100942.19;;;17.71;100.00
14232;BME280;7200;52.194;9.900;2023-09-07T02:30:28;100945.22;;;17.65;100.00
14232;BME280;7200;52.194;9.900;2023-09-07T02:32:54;100948.22;;;17.59;100.00
14232;BME280;7200;52.194;9.900;2023-09-07T02:35:19;100951.75;;;17.44;100.00
14232;BME280;7200;52.194;9.900;2023-09-07T02:37:44;100952.72;;;17.43;100.00
14232;BME280;7200;52.194;9.900;2023-09-07T02:40:10;100942.94;;;17.27;100.00
14232;BME280;7200;52.194;9.900;2023-09-07T02:42:35;100947.75;;;17.37;100.00
14232;BME280;7200;52.194;9.900;2023-09-07T02:45:01;100950.66;;;17.32;100.00
14232;BME280;7200;52.194;9.900;2023-09-07T02:47:26;100947.06;;;17.33;100.00
14232;BME280;7200;52.194;9.900;2023-09-07T02:49:52;100954.38;;;17.29;100.00
14232;BME280;7200;52.194;9.900;2023-09-07T02:52:17;100955.56;;;17.24;100.00
14232;BME280;7200;52.194;9.900;2023-09-07T02:54:42;100947.91;;;17.02;100.00
14232;BME280;7200;52.194;9.900;2023-09-07T02:57:08;100953.66;;;16.94;100.00
14232;BME280;7200;52.194;9.900;2023-09-07T02:59:33;100948.94;;;16.99;100.00
14232;BME280;7200;52.194;9.900;2023-09-07T03:01:58;100948.94;;;16.99;100.00
14232;BME280;7200;52.194;9.900;2023-09-07T03:04:23;100946.16;;;16.85;100.00
14232;BME280;7200;52.194;9.900;2023-09-07T03:06:49;100944.81;;;16.93;100.00
14232;BME280;7200;52.194;9.900;2023-09-07T03:09:14;100940.31;;;16.94;100.00
14232;BME280;7200;52.194;9.900;2023-09-07T03:11:39;100936.13;;;16.90;100.00
14232;BME280;7200;52.194;9.900;2023-09-07T03:14:05;100943.09;;;17.08;100.00
14232;BME280;7200;52.194;9.900;2023-09-07T03:16:30;100943.38;;;17.20;100.00
14232;BME280;7200;52.194;9.900;2023-09-07T03:18:56;100940.84;;;17.17;100.00
14232;BME280;7200;52.194;9.900;2023-09-07T03:21:21;100946.63;;;17.09;100.00
14232;BME280;7200;52.194;9.900;2023-09-07T03:23:50;100938.94;;;16.87;100.00
14232;BME280;7200;52.194;9.900;2023-09-07T03:26:17;100938.56;;;16.77;100.00
14232;BME280;7200;52.194;9.900;2023-09-07T03:28:42;100942.63;;;16.84;100.00
14232;BME280;7200;52.194;9.900;2023-09-07T03:31:07;100941.38;;;16.74;100.00
14232;BME280;7200;52.194;9.900;2023-09-07T03:33:32;100945.41;;;16.65;100.00
14232;BME280;7200;52.194;9.900;2023-09-07T03:35:58;100941.56;;;16.71;100.00
14232;BME280;7200;52.194;9.900;2023-09-07T03:38:24;100945.13;;;16.87;100.00
14232;BME280;7200;52.194;9.900;2023-09-07T03:40:49;100944.13;;;16.90;100.00
14232;BME280;7200;52.194;9.900;2023-09-07T03:43:15;100942.75;;;16.81;100.00
14232;BME280;7200;52.194;9.900;2023-09-07T03:45:40;100944.22;;;16.71;100.00
14232;BME280;7200;52.194;9.900;2023-09-07T03:48:05;100941.16;;;16.61;100.00
14232;BME280;7200;52.194;9.900;2023-09-07T03:50:31;100945.00;;;16.55;100.00
14232;BME280;7200;52.194;9.900;2023-09-07T03:52:56;100944.78;;;16.60;100.00
14232;BME280;7200;52.194;9.900;2023-09-07T03:55:21;100947.38;;;16.62;100.00
14232;BME280;7200;52.194;9.900;2023-09-07T03:57:47;100952.81;;;16.43;100.00
14232;BME280;7200;52.194;9.900;2023-09-07T04:00:12;100953.66;;;16.43;100.00
14232;BME280;7200;52.194;9.900;2023-09-07T04:02:39;100952.13;;;16.39;100.00
14232;BME280;7200;52.194;9.900;2023-09-07T04:05:05;100947.56;;;16.41;100.00
14232;BME280;7200;52.194;9.900;2023-09-07T04:07:31;100941.47;;;16.04;100.00
14232;BME280;7200;52.194;9.900;2023-09-07T04:09:57;100945.44;;;15.78;100.00
14232;BME280;7200;52.194;9.900;2023-09-07T04:12:22;100945.78;;;15.89;100.00
14232;BME280;7200;52.194;9.900;2023-09-07T04:14:47;100945.69;;;16.08;100.00
14232;BME280;7200;52.194;9.900;2023-09-07T04:17:13;100945.88;;;16.05;100.00
14232;BME280;7200;52.194;9.900;2023-09-07T04:19:38;100947.66;;;16.05;100.00
14232;BME280;7200;52.194;9.900;2023-09-07T04:22:04;100949.63;;;16.19;100.00
14232;BME280;7200;52.194;9.900;2023-09-07T04:24:29;100954.00;;;16.70;100.00
14232;BME280;7200;52.194;9.900;2023-09-07T04:26:58;100957.44;;;16.90;100.00
14232;BME280;7200;52.194;9.900;2023-09-07T04:29:25;100953.13;;;16.70;100.00
14232;BME280;7200;52.194;9.900;2023-09-07T04:31:50;100953.69;;;16.77;100.00
14232;BME280;7200;52.194;9.900;2023-09-07T04:34:15;100953.88;;;16.56;100.00
14232;BME280;7200;52.194;9.900;2023-09-07T04:36:41;100952.03;;;16.41;100.00
14232;BME280;7200;52.194;9.900;2023-09-07T04:39:06;100956.34;;;16.43;100.00
14232;BME280;7200;52.194;9.900;2023-09-07T04:41:31;100963.44;;;16.60;100.00
14232;BME280;7200;52.194;9.900;2023-09-07T04:43:57;100960.22;;;16.71;100.00
14232;BME280;7200;52.194;9.900;2023-09-07T04:46:22;100967.47;;;16.34;100.00
14232;BME280;7200;52.194;9.900;2023-09-07T04:48:48;100956.69;;;16.53;100.00
14232;BME280;7200;52.194;9.900;2023-09-07T04:51:13;100957.75;;;16.33;100.00
14232;BME280;7200;52.194;9.900;2023-09-07T04:53:39;100963.88;;;16.35;100.00
14232;BME280;7200;52.194;9.900;2023-09-07T04:56:06;100964.81;;;16.34;100.00
14232;BME280;7200;52.194;9.900;2023-09-07T04:58:32;100964.34;;;16.08;100.00
14232;BME280;7200;52.194;9.900;2023-09-07T05:01:04;100963.63;;;16.05;100.00
14232;BME280;7200;52.194;9.900;2023-09-07T05:03:30;100964.25;;;16.45;100.00
14232;BME280;7200;52.194;9.900;2023-09-07T05:05:56;100966.69;;;16.32;100.00
14232;BME280;7200;52.194;9.900;2023-09-07T05:08:21;100967.16;;;16.23;100.00
14232;BME280;7200;52.194;9.900;2023-09-07T05:10:48;100970.44;;;16.28;100.00
14232;BME280;7200;52.194;9.900;2023-09-07T05:13:13;100967.47;;;16.34;100.00
14232;BME280;7200;52.194;9.900;2023-09-07T05:15:47;100968.91;;;16.57;100.00
14232;BME280;7200;52.194;9.900;2023-09-07T05:18:13;100968.09;;;16.39;100.00
14232;BME280;7200;52.194;9.900;2023-09-07T05:20:38;100972.06;;;16.48;100.00
14232;BME280;7200;52.194;9.900;2023-09-07T05:23:03;100971.34;;;16.62;100.00
14232;BME280;7200;52.194;9.900;2023-09-07T05:25:28;100971.56;;;16.57;100.00
14232;BME280;7200;52.194;9.900;2023-09-07T05:27:54;100975.19;;;16.56;100.00
14232;BME280;7200;52.194;9.900;2023-09-07T05:30:19;100972.09;;;16.30;100.00
14232;BME280;7200;52.194;9.900;2023-09-07T05:32:45;100966.38;;;16.21;100.00
14232;BME280;7200;52.194;9.900;2023-09-07T05:35:10;100974.75;;;16.30;100.00
14232;BME280;7200;52.194;9.900;2023-09-07T05:37:37;100969.72;;;16.42;100.00
14232;BME280;7200;52.194;9.900;2023-09-07T05:40:02;100963.44;;;16.60;100.00
14232;BME280;7200;52.194;9.900;2023-09-07T05:42:29;100971.00;;;16.85;100.00
14232;BME280;7200;52.194;9.900;2023-09-07T05:44:54;100970.06;;;17.02;100.00
14232;BME280;7200;52.194;9.900;2023-09-07T05:47:19;100966.81;;;17.13;100.00
14232;BME280;7200;52.194;9.900;2023-09-07T05:49:45;100967.16;;;17.23;100.00
14232;BME280;7200;52.194;9.900;2023-09-07T05:52:10;100965.81;;;17.31;100.00
14232;BME280;7200;52.194;9.900;2023-09-07T05:54:35;100966.56;;;17.49;100.00
14232;BME280;7200;52.194;9.900;2023-09-07T05:57:00;100963.00;;;17.65;100.00
14232;BME280;7200;52.194;9.900;2023-09-07T05:59:26;100967.81;;;17.74;100.00
14232;BME280;7200;52.194;9.900;2023-09-07T06:01:51;100962.91;;;17.82;100.00
14232;BME280;7200;52.194;9.900;2023-09-07T06:04:16;100964.31;;;17.89;100.00
14232;BME280;7200;52.194;9.900;2023-09-07T06:06:41;100965.66;;;17.97;100.00
14232;BME280;7200;52.194;9.900;2023-09-07T06:09:07;100969.50;;;18.07;100.00
14232;BME280;7200;52.194;9.900;2023-09-07T06:11:32;100971.56;;;18.18;100.00
14232;BME280;7200;52.194;9.900;2023-09-07T06:13:58;100973.75;;;18.25;100.00
14232;BME280;7200;52.194;9.900;2023-09-07T06:16:23;100975.09;;;18.33;100.00
14232;BME280;7200;52.194;9.900;2023-09-07T06:18:49;100980.09;;;18.39;100.00
14232;BME280;7200;52.194;9.900;2023-09-07T06:21:14;100980.56;;;18.45;100.00
14232;BME280;7200;52.194;9.900;2023-09-07T06:23:39;100980.38;;;18.48;100.00
14232;BME280;7200;52.194;9.900;2023-09-07T06:26:05;100985.34;;;18.55;100.00
14232;BME280;7200;52.194;9.900;2023-09-07T06:28:30;100984.66;;;18.37;100.00
14232;BME280;7200;52.194;9.900;2023-09-07T06:30:55;100991.75;;;18.52;100.00
14232;BME280;7200;52.194;9.900;2023-09-07T06:33:20;101000.34;;;18.72;100.00
14232;BME280;7200;52.194;9.900;2023-09-07T06:35:46;100992.72;;;18.80;100.00
14232;BME280;7200;52.194;9.900;2023-09-07T06:38:11;100999.31;;;18.74;100.00
14232;BME280;7200;52.194;9.900;2023-09-07T06:40:36;100995.41;;;18.80;100.00
14232;BME280;7200;52.194;9.900;2023-09-07T06:43:01;100998.00;;;18.96;100.00
14232;BME280;7200;52.194;9.900;2023-09-07T06:45:34;100994.16;;;19.14;100.00
14232;BME280;7200;52.194;9.900;2023-09-07T06:47:59;101002.72;;;19.34;100.00
14232;BME280;7200;52.194;9.900;2023-09-07T06:50:24;101002.50;;;19.51;100.00
14232;BME280;7200;52.194;9.900;2023-09-07T06:52:50;101007.81;;;19.80;100.00
14232;BME280;7200;52.194;9.900;2023-09-07T06:55:16;101004.41;;;19.91;100.00
14232;BME280;7200;52.194;9.900;2023-09-07T06:57:41;101002.59;;;19.91;100.00
14232;BME280;7200;52.194;9.900;2023-09-07T07:00:07;101000.63;;;19.66;100.00
14232;BME280;7200;52.194;9.900;2023-09-07T07:02:34;101008.00;;;19.62;100.00
14232;BME280;7200;52.194;9.900;2023-09-07T07:04:59;101000.41;;;19.42;100.00
14232;BME280;7200;52.194;9.900;2023-09-07T07:07:25;101014.44;;;19.74;100.00
14232;BME280;7200;52.194;9.900;2023-09-07T07:09:50;101014.13;;;19.64;100.00
14232;BME280;7200;52.194;9.900;2023-09-07T07:12:17;101015.53;;;19.70;100.00
14232;BME280;7200;52.194;9.900;2023-09-07T07:14:43;101018.06;;;19.73;100.00
14232;BME280;7200;52.194;9.900;2023-09-07T07:17:08;101014.56;;;19.86;100.00
14232;BME280;7200;52.194;9.900;2023-09-07T07:19:34;101021.69;;;19.99;100.00
14232;BME280;7200;52.194;9.900;2023-09-07T07:21:59;101010.66;;;20.04;100.00
14232;BME280;7200;52.194;9.900;2023-09-07T07:24:25;101016.59;;;20.22;100.00
14232;BME280;7200;52.194;9.900;2023-09-07T07:26:50;101022.94;;;20.34;100.00
14232;BME280;7200;52.194;9.900;2023-09-07T07:29:15;101014.72;;;19.97;100.00
14232;BME280;7200;52.194;9.900;2023-09-07T07:31:40;101027.78;;;20.29;100.00
14232;BME280;7200;52.194;9.900;2023-09-07T07:34:06;101026.84;;;20.55;100.00
14232;BME280;7200;52.194;9.900;2023-09-07T07:36:31;101027.94;;;20.66;100.00
14232;BME280;7200;52.194;9.900;2023-09-07T07:38:56;101034.47;;;21.00;100.00
14232;BME280;7200;52.194;9.900;2023-09-07T07:41:22;101029.56;;;20.94;100.00
14232;BME280;7200;52.194;9.900;2023-09-07T07:43:47;101033.44;;;21.03;100.00
14232;BME280;7200;52.194;9.900;2023-09-07T07:46:12;101025.47;;;20.88;100.00
14232;BME280;7200;52.194;9.900;2023-09-07T07:48:41;101033.31;;;20.91;100.00
14232;BME280;7200;52.194;9.900;2023-09-07T07:51:06;101032.47;;;20.91;100.00
14232;BME280;7200;52.194;9.900;2023-09-07T07:53:31;101044.81;;;21.06;100.00
14232;BME280;7200;52.194;9.900;2023-09-07T07:55:57;101045.63;;;21.32;100.00
14232;BME280;7200;52.194;9.900;2023-09-07T07:58:22;101053.13;;;21.40;100.00
14232;BME280;7200;52.194;9.900;2023-09-07T08:00:48;101044.53;;;21.35;100.00
14232;BME280;7200;52.194;9.900;2023-09-07T08:03:14;101048.81;;;21.37;100.00
14232;BME280;7200;52.194;9.900;2023-09-07T08:05:40;101050.72;;;21.61;100.00
14232;BME280;7200;52.194;9.900;2023-09-07T08:08:05;101045.75;;;21.68;100.00
14232;BME280;7200;52.194;9.900;2023-09-07T08:10:34;101046.88;;;21.89;100.00
14232;BME280;7200;52.194;9.900;2023-09-07T08:13:02;101043.78;;;22.07;100.00
14232;BME280;7200;52.194;9.900;2023-09-07T08:15:28;101046.91;;;22.25;100.00
14232;BME280;7200;52.194;9.900;2023-09-07T08:17:53;101038.34;;;22.20;100.00
14232;BME280;7200;52.194;9.900;2023-09-07T08:20:19;101043.19;;;22.39;100.00
14232;BME280;7200;52.194;9.900;2023-09-07T08:22:44;101030.97;;;22.34;100.00
14232;BME280;7200;52.194;9.900;2023-09-07T08:25:11;101040.97;;;22.08;100.00
14232;BME280;7200;52.194;9.900;2023-09-07T08:27:41;101035.81;;;22.65;100.00
14232;BME280;7200;52.194;9.900;2023-09-07T08:30:11;101037.03;;;22.72;100.00
14232;BME280;7200;52.194;9.900;2023-09-07T08:32:36;101038.66;;;22.86;100.00
14232;BME280;7200;52.194;9.900;2023-09-07T08:35:04;101052.16;;;23.31;100.00
14232;BME280;7200;52.194;9.900;2023-09-07T08:37:31;101053.63;;;23.24;100.00
14232;BME280;7200;52.194;9.900;2023-09-07T08:39:58;101054.44;;;23.36;100.00
14232;BME280;7200;52.194;9.900;2023-09-07T08:42:24;101061.94;;;23.43;100.00
14232;BME280;7200;52.194;9.900;2023-09-07T08:44:51;101063.53;;;23.46;100.00
14232;BME280;7200;52.194;9.900;2023-09-07T08:47:18;101066.66;;;23.74;100.00
14232;BME280;7200;52.194;9.900;2023-09-07T08:49:46;101064.34;;;23.80;100.00
14232;BME280;7200;52.194;9.900;2023-09-07T08:52:13;101068.47;;;23.96;100.00
14232;BME280;7200;52.194;9.900;2023-09-07T08:54:41;101077.50;;;24.06;100.00
14232;BME280;7200;52.194;9.900;2023-09-07T08:57:07;101073.19;;;23.48;100.00
14232;BME280;7200;52.194;9.900;2023-09-07T08:59:33;101078.22;;;23.42;100.00
14232;BME280;7200;52.194;9.900;2023-09-07T09:01:59;101085.56;;;23.51;100.00
14232;BME280;7200;52.194;9.900;2023-09-07T09:04:25;101080.13;;;23.74;100.00
14232;BME280;7200;52.194;9.900;2023-09-07T09:06:52;101079.84;;;23.99;100.00
14232;BME280;7200;52.194;9.900;2023-09-07T09:09:25;101075.91;;;24.03;100.00
14232;BME280;7200;52.194;9.900;2023-09-07T09:11:50;101077.19;;;24.20;100.00
14232;BME280;7200;52.194;9.900;2023-09-07T09:14:17;101074.59;;;24.62;100.00
14232;BME280;7200;52.194;9.900;2023-09-07T09:16:51;101081.66;;;24.84;100.00
14232;BME280;7200;52.194;9.900;2023-09-07T09:19:16;101070.50;;;24.89;100.00
14232;BME280;7200;52.194;9.900;2023-09-07T09:21:44;101075.22;;;24.97;100.00
14232;BME280;7200;52.194;9.900;2023-09-07T09:24:10;101075.63;;;24.71;100.00
14232;BME280;7200;52.194;9.900;2023-09-07T09:26:39;101077.91;;;24.97;100.00
14232;BME280;7200;52.194;9.900;2023-09-07T09:29:04;101071.03;;;25.14;100.00
14232;BME280;7200;52.194;9.900;2023-09-07T09:31:30;101064.34;;;25.08;100.00
14232;BME280;7200;52.194;9.900;2023-09-07T09:33:56;101059.63;;;25.00;100.00
14232;BME280;7200;52.194;9.900;2023-09-07T09:36:22;101066.53;;;25.45;100.00
14232;BME280;7200;52.194;9.900;2023-09-07T09:38:49;101059.72;;;25.51;100.00
14232;BME280;7200;52.194;9.900;2023-09-07T09:41:16;101060.13;;;25.56;100.00
14232;BME280;7200;52.194;9.900;2023-09-07T09:43:42;101059.59;;;25.62;100.00
14232;BME280;7200;52.194;9.900;2023-09-07T09:46:09;101055.31;;;25.69;100.00
14232;BME280;7200;52.194;9.900;2023-09-07T09:48:35;101052.78;;;25.77;100.00
14232;BME280;7200;52.194;9.900;2023-09-07T09:51:03;101055.78;;;25.84;100.00
14232;BME280;7200;52.194;9.900;2023-09-07T09:53:29;101051.16;;;25.96;100.00
14232;BME280;7200;52.194;9.900;2023-09-07T09:55:55;101054.69;;;25.96;100.00
14232;BME280;7200;52.194;9.900;2023-09-07T09:58:20;101049.28;;;25.96;100.00
14232;BME280;7200;52.194;9.900;2023-09-07T10:00:48;101038.34;;;26.08;100.00
14232;BME280;7200;52.194;9.900;2023-09-07T10:03:18;101040.03;;;26.09;100.00
14232;BME280;7200;52.194;9.900;2023-09-07T10:05:48;101043.34;;;26.22;100.00
14232;BME280;7200;52.194;9.900;2023-09-07T10:08:14;101038.47;;;26.26;100.00
14232;BME280;7200;52.194;9.900;2023-09-07T10:10:46;101043.72;;;26.27;100.00
14232;BME280;7200;52.194;9.900;2023-09-07T10:13:14;101038.31;;;26.56;100.00
14232;BME280;7200;52.194;9.900;2023-09-07T10:15:40;101028.63;;;26.73;100.00
14232;BME280;7200;52.194;9.900;2023-09-07T10:18:15;101038.88;;;26.70;100.00
14232;BME280;7200;52.194;9.900;2023-09-07T10:20:58;101027.16;;;26.79;100.00
14232;BME280;7200;52.194;9.900;2023-09-07T10:23:35;101029.59;;;26.72;100.00
14232;BME280;7200;52.194;9.900;2023-09-07T10:26:03;101029.50;;;26.64;100.00
14232;BME280;7200;52.194;9.900;2023-09-07T10:28:31;101033.81;;;26.94;100.00
14232;BME280;7200;52.194;9.900;2023-09-07T10:31:18;101023.38;;;26.33;100.00
14232;BME280;7200;52.194;9.900;2023-09-07T10:33:44;101026.63;;;26.46;100.00
14232;BME280;7200;52.194;9.900;2023-09-07T10:36:21;101025.47;;;26.58;100.00
14232;BME280;7200;52.194;9.900;2023-09-07T10:38:47;101021.34;;;26.45;100.00
14232;BME280;7200;52.194;9.900;2023-09-07T10:41:12;101030.59;;;26.52;100.00
14232;BME280;7200;52.194;9.900;2023-09-07T10:43:47;101024.63;;;26.68;100.00
14232;BME280;7200;52.194;9.900;2023-09-07T10:46:13;101019.09;;;26.59;100.00
14232;BME280;7200;52.194;9.900;2023-09-07T10:48:38;101022.19;;;26.74;100.00
14232;BME280;7200;52.194;9.900;2023-09-07T10:51:03;101007.38;;;26.69;100.00
14232;BME280;7200;52.194;9.900;2023-09-07T10:53:30;101009.47;;;26.85;100.00
14232;BME280;7200;52.194;9.900;2023-09-07T10:55:58;101003.94;;;26.86;100.00
14232;BME280;7200;52.194;9.900;2023-09-07T10:58:31;101005.13;;;26.35;100.00
14232;BME280;7200;52.194;9.900;2023-09-07T11:00:57;101013.00;;;26.28;100.00
14232;BME280;7200;52.194;9.900;2023-09-07T11:03:24;101002.09;;;26.67;100.00
14232;BME280;7200;52.194;9.900;2023-09-07T11:05:57;101005.69;;;27.05;100.00
14232;BME280;7200;52.194;9.900;2023-09-07T11:08:24;100985.63;;;26.98;100.00
14232;BME280;7200;52.194;9.900;2023-09-07T11:10:50;100999.06;;;27.17;100.00
14232;BME280;7200;52.194;9.900;2023-09-07T11:13:17;100978.59;;;26.77;100.00
14232;BME280;7200;52.194;9.900;2023-09-07T11:15:42;101009.63;;;27.21;100.00
14232;BME280;7200;52.194;9.900;2023-09-07T11:18:08;100988.41;;;26.78;100.00
14232;BME280;7200;52.194;9.900;2023-09-07T11:20:37;100997.59;;;27.33;100.00
14232;BME280;7200;52.194;9.900;2023-09-07T11:23:05;101006.91;;;27.21;100.00
14232;BME280;7200;52.194;9.900;2023-09-07T11:25:38;100982.13;;;27.61;100.00
14232;BME280;7200;52.194;9.900;2023-09-07T11:28:05;100985.09;;;27.68;100.00
14232;BME280;7200;52.194;9.900;2023-09-07T11:30:34;100954.72;;;27.28;100.00
14232;BME280;7200;52.194;9.900;2023-09-07T11:33:04;100977.63;;;27.52;100.00
14232;BME280;7200;52.194;9.900;2023-09-07T11:35:30;100964.28;;;27.86;100.00
14232;BME280;7200;52.194;9.900;2023-09-07T11:37:55;100960.84;;;28.20;100.00
14232;BME280;7200;52.194;9.900;2023-09-07T11:40:21;100961.91;;;28.01;100.00
14232;BME280;7200;52.194;9.900;2023-09-07T11:42:46;100961.53;;;28.22;100.00
14232;BME280;7200;52.194;9.900;2023-09-07T11:45:11;100965.75;;;28.17;100.00
14232;BME280;7200;52.194;9.900;2023-09-07T11:47:38;100964.25;;;28.22;100.00
14232;BME280;7200;52.194;9.900;2023-09-07T11:50:05;100945.00;;;28.33;100.00
14232;BME280;7200;52.194;9.900;2023-09-07T11:52:31;100938.38;;;28.54;100.00
14232;BME280;7200;52.194;9.900;2023-09-07T11:54:57;100943.16;;;28.42;100.00
14232;BME280;7200;52.194;9.900;2023-09-07T11:57:22;100944.94;;;28.25;100.00
14232;BME280;7200;52.194;9.900;2023-09-07T11:59:47;100949.56;;;28.33;100.00
14232;BME280;7200;52.194;9.900;2023-09-07T12:02:13;100949.13;;;28.46;100.00
14232;BME280;7200;52.194;9.900;2023-09-07T12:04:40;100950.63;;;28.40;100.00
14232;BME280;7200;52.194;9.900;2023-09-07T12:07:05;100957.63;;;28.43;100.00
14232;BME280;7200;52.194;9.900;2023-09-07T12:09:34;100952.72;;;28.46;100.00
14232;BME280;7200;52.194;9.900;2023-09-07T12:12:03;100954.69;;;28.62;100.00
14232;BME280;7200;52.194;9.900;2023-09-07T12:14:28;100953.50;;;28.39;100.00
14232;BME280;7200;52.194;9.900;2023-09-07T12:16:54;100948.53;;;28.52;100.00
14232;BME280;7200;52.194;9.900;2023-09-07T12:19:19;100939.66;;;28.50;100.00
14232;BME280;7200;52.194;9.900;2023-09-07T12:21:45;100934.22;;;28.50;100.00
14232;BME280;7200;52.194;9.900;2023-09-07T12:24:10;100932.31;;;28.42;100.00
14232;BME280;7200;52.194;9.900;2023-09-07T12:26:37;100934.69;;;28.37;100.00
14232;BME280;7200;52.194;9.900;2023-09-07T12:29:03;100927.72;;;28.61;100.00
14232;BME280;7200;52.194;9.900;2023-09-07T12:31:32;100916.09;;;28.50;100.00
14232;BME280;7200;52.194;9.900;2023-09-07T12:33:57;100926.31;;;28.30;100.00
14232;BME280;7200;52.194;9.900;2023-09-07T12:36:23;100949.25;;;28.54;100.00
14232;BME280;7200;52.194;9.900;2023-09-07T12:38:48;100937.03;;;28.58;100.00
14232;BME280;7200;52.194;9.900;2023-09-07T12:41:14;100942.47;;;28.58;100.00
14232;BME280;7200;52.194;9.900;2023-09-07T12:43:43;100948.09;;;28.65;100.00
14232;BME280;7200;52.194;9.900;2023-09-07T12:46:09;100927.94;;;28.67;100.00